sensor_id;sensor_type;location;lat;lon;timestamp;temperature;humidity
49711;DHT22;35602;44.534;18.696;2022-08-19T00:01:53;27.90;52.80
49711;DHT22;35602;44.534;18.696;2022-08-19T00:06:55;27.90;52.80
49711;DHT22;35602;44.534;18.696;2022-08-19T00:11:57;27.90;52.90
49711;DHT22;35602;44.534;18.696;2022-08-19T00:16:58;27.80;52.90
49711;DHT22;35602;44.534;18.696;2022-08-19T00:21:59;27.80;52.90
49711;DHT22;35602;44.534;18.696;2022-08-19T00:27:00;27.80;52.90
49711;DHT22;35602;44.534;18.696;2022-08-19T00:32:02;27.90;53.00
49711;DHT22;35602;44.534;18.696;2022-08-19T00:37:03;27.80;53.00
49711;DHT22;35602;44.534;18.696;2022-08-19T00:42:04;27.80;53.00
49711;DHT22;35602;44.534;18.696;2022-08-19T00:47:06;27.90;53.10
49711;DHT22;35602;44.534;18.696;2022-08-19T00:52:11;27.80;53.10
49711;DHT22;35602;44.534;18.696;2022-08-19T00:57:17;27.80;53.10
49711;DHT22;35602;44.534;18.696;2022-08-19T01:02:18;27.80;53.20
49711;DHT22;35602;44.534;18.696;2022-08-19T01:07:19;27.80;53.20
49711;DHT22;35602;44.534;18.696;2022-08-19T01:12:20;27.80;53.30
49711;DHT22;35602;44.534;18.696;2022-08-19T01:17:22;27.80;53.30
49711;DHT22;35602;44.534;18.696;2022-08-19T01:22:31;27.80;53.30
49711;DHT22;35602;44.534;18.696;2022-08-19T01:27:40;27.80;53.30
49711;DHT22;35602;44.534;18.696;2022-08-19T01:32:41;27.80;53.40
49711;DHT22;35602;44.534;18.696;2022-08-19T01:38:07;27.80;53.40
49711;DHT22;35602;44.534;18.696;2022-08-19T01:43:10;27.80;53.40
49711;DHT22;35602;44.534;18.696;2022-08-19T01:48:11;27.80;53.50
49711;DHT22;35602;44.534;18.696;2022-08-19T01:53:13;27.80;53.40
49711;DHT22;35602;44.534;18.696;2022-08-19T01:58:19;27.80;53.50
49711;DHT22;35602;44.534;18.696;2022-08-19T02:03:21;27.80;53.50
49711;DHT22;35602;44.534;18.696;2022-08-19T02:08:23;27.80;53.60
49711;DHT22;35602;44.534;18.696;2022-08-19T02:13:24;27.80;53.60
49711;DHT22;35602;44.534;18.696;2022-08-19T02:18:26;27.80;54.20
49711;DHT22;35602;44.534;18.696;2022-08-19T02:23:27;27.80;53.60
49711;DHT22;35602;44.534;18.696;2022-08-19T02:28:27;27.80;53.70
49711;DHT22;35602;44.534;18.696;2022-08-19T02:33:28;27.80;53.70
49711;DHT22;35602;44.534;18.696;2022-08-19T02:38:29;27.80;53.70
49711;DHT22;35602;44.534;18.696;2022-08-19T02:43:31;27.80;53.70
49711;DHT22;35602;44.534;18.696;2022-08-19T02:48:33;27.80;53.70
49711;DHT22;35602;44.534;18.696;2022-08-19T02:53:33;27.80;53.70
49711;DHT22;35602;44.534;18.696;2022-08-19T02:58:34;27.70;53.70
49711;DHT22;35602;44.534;18.696;2022-08-19T03:03:36;27.80;53.70
49711;DHT22;35602;44.534;18.696;2022-08-19T03:08:37;27.70;53.70
49711;DHT22;35602;44.534;18.696;2022-08-19T03:13:38;27.80;53.80
49711;DHT22;35602;44.534;18.696;2022-08-19T03:18:39;27.70;53.70
49711;DHT22;35602;44.534;18.696;2022-08-19T03:23:39;27.80;53.90
49711;DHT22;35602;44.534;18.696;2022-08-19T03:28:41;27.70;53.80
49711;DHT22;35602;44.534;18.696;2022-08-19T03:33:42;27.70;53.80
49711;DHT22;35602;44.534;18.696;2022-08-19T03:38:48;27.70;53.80
49711;DHT22;35602;44.534;18.696;2022-08-19T03:43:51;27.70;53.80
49711;DHT22;35602;44.534;18.696;2022-08-19T03:48:55;27.70;53.90
49711;DHT22;35602;44.534;18.696;2022-08-19T03:53:58;27.70;53.90
49711;DHT22;35602;44.534;18.696;2022-08-19T03:58:59;27.70;53.80
49711;DHT22;35602;44.534;18.696;2022-08-19T04:04:00;27.70;53.80
49711;DHT22;35602;44.534;18.696;2022-08-19T04:09:04;27.70;53.90
49711;DHT22;35602;44.534;18.696;2022-08-19T04:14:05;27.70;54.00
49711;DHT22;35602;44.534;18.696;2022-08-19T04:19:06;27.70;54.00
49711;DHT22;35602;44.534;18.696;2022-08-19T04:24:09;27.70;54.10
49711;DHT22;35602;44.534;18.696;2022-08-19T04:29:14;27.70;54.00
49711;DHT22;35602;44.534;18.696;2022-08-19T04:34:18;27.70;54.00
49711;DHT22;35602;44.534;18.696;2022-08-19T04:39:26;27.70;54.60
49711;DHT22;35602;44.534;18.696;2022-08-19T04:44:48;27.70;54.00
49711;DHT22;35602;44.534;18.696;2022-08-19T04:49:51;27.70;54.00
49711;DHT22;35602;44.534;18.696;2022-08-19T04:54:52;27.70;53.90
49711;DHT22;35602;44.534;18.696;2022-08-19T04:59:56;27.70;54.60
49711;DHT22;35602;44.534;18.696;2022-08-19T05:04:58;27.70;53.90
49711;DHT22;35602;44.534;18.696;2022-08-19T05:10:03;27.70;53.90
49711;DHT22;35602;44.534;18.696;2022-08-19T05:15:06;27.70;54.00
49711;DHT22;35602;44.534;18.696;2022-08-19T05:20:09;27.70;54.00
49711;DHT22;35602;44.534;18.696;2022-08-19T05:25:30;27.70;54.00
49711;DHT22;35602;44.534;18.696;2022-08-19T05:30:31;27.70;54.00
49711;DHT22;35602;44.534;18.696;2022-08-19T05:35:33;27.70;54.10
49711;DHT22;35602;44.534;18.696;2022-08-19T05:40:35;27.70;54.10
49711;DHT22;35602;44.534;18.696;2022-08-19T05:45:41;27.60;54.00
49711;DHT22;35602;44.534;18.696;2022-08-19T05:50:42;27.60;54.00
49711;DHT22;35602;44.534;18.696;2022-08-19T05:55:44;27.70;54.10
49711;DHT22;35602;44.534;18.696;2022-08-19T06:00:45;27.70;54.10
49711;DHT22;35602;44.534;18.696;2022-08-19T06:05:46;27.70;54.10
49711;DHT22;35602;44.534;18.696;2022-08-19T06:10:47;27.70;54.10
49711;DHT22;35602;44.534;18.696;2022-08-19T06:15:48;27.70;54.10
49711;DHT22;35602;44.534;18.696;2022-08-19T06:20:49;27.60;54.00
49711;DHT22;35602;44.534;18.696;2022-08-19T06:25:50;27.60;54.00
49711;DHT22;35602;44.534;18.696;2022-08-19T06:30:51;27.60;54.10
49711;DHT22;35602;44.534;18.696;2022-08-19T06:35:52;27.70;54.10
49711;DHT22;35602;44.534;18.696;2022-08-19T06:41:04;27.60;54.00
49711;DHT22;35602;44.534;18.696;2022-08-19T06:46:14;27.60;54.00
49711;DHT22;35602;44.534;18.696;2022-08-19T06:51:17;27.60;54.00
49711;DHT22;35602;44.534;18.696;2022-08-19T06:56:22;27.70;54.10
49711;DHT22;35602;44.534;18.696;2022-08-19T07:01:25;27.60;54.90
49711;DHT22;35602;44.534;18.696;2022-08-19T07:06:26;26.70;54.00
49711;DHT22;35602;44.534;18.696;2022-08-19T07:11:27;26.40;54.00
49711;DHT22;35602;44.534;18.696;2022-08-19T07:16:29;26.20;53.50
49711;DHT22;35602;44.534;18.696;2022-08-19T07:21:29;26.10;53.40
49711;DHT22;35602;44.534;18.696;2022-08-19T07:26:33;26.00;53.10
49711;DHT22;35602;44.534;18.696;2022-08-19T07:31:39;25.50;54.10
49711;DHT22;35602;44.534;18.696;2022-08-19T07:36:41;25.30;54.50
49711;DHT22;35602;44.534;18.696;2022-08-19T07:41:42;25.10;54.70
49711;DHT22;35602;44.534;18.696;2022-08-19T07:46:48;25.10;55.00
49711;DHT22;35602;44.534;18.696;2022-08-19T07:51:53;25.00;55.00
49711;DHT22;35602;44.534;18.696;2022-08-19T07:56:54;25.00;55.20
49711;DHT22;35602;44.534;18.696;2022-08-19T08:01:59;25.40;55.90
49711;DHT22;35602;44.534;18.696;2022-08-19T08:07:01;26.00;54.40
49711;DHT22;35602;44.534;18.696;2022-08-19T08:12:27;26.40;54.00
49711;DHT22;35602;44.534;18.696;2022-08-19T08:17:29;26.60;54.00
49711;DHT22;35602;44.534;18.696;2022-08-19T08:22:30;26.70;53.40
49711;DHT22;35602;44.534;18.696;2022-08-19T08:27:50;26.20;53.90
49711;DHT22;35602;44.534;18.696;2022-08-19T08:32:51;26.00;53.90
49711;DHT22;35602;44.534;18.696;2022-08-19T08:37:53;25.80;53.90
49711;DHT22;35602;44.534;18.696;2022-08-19T08:43:39;25.80;54.10
49711;DHT22;35602;44.534;18.696;2022-08-19T08:48:55;25.80;54.20
49711;DHT22;35602;44.534;18.696;2022-08-19T08:53:59;25.70;54.40
49711;DHT22;35602;44.534;18.696;2022-08-19T08:59:04;25.70;54.40
49711;DHT22;35602;44.534;18.696;2022-08-19T09:04:12;25.70;54.50
49711;DHT22;35602;44.534;18.696;2022-08-19T09:09:30;25.70;54.70
49711;DHT22;35602;44.534;18.696;2022-08-19T09:14:57;25.70;54.80
49711;DHT22;35602;44.534;18.696;2022-08-19T09:25:23;25.60;54.60
49711;DHT22;35602;44.534;18.696;2022-08-19T09:30:26;25.60;54.40
49711;DHT22;35602;44.534;18.696;2022-08-19T09:35:31;25.60;54.10
49711;DHT22;35602;44.534;18.696;2022-08-19T09:40:32;25.70;54.00
49711;DHT22;35602;44.534;18.696;2022-08-19T09:45:33;25.60;53.80
49711;DHT22;35602;44.534;18.696;2022-08-19T09:50:35;25.50;53.50
49711;DHT22;35602;44.534;18.696;2022-08-19T09:55:43;25.50;53.40
49711;DHT22;35602;44.534;18.696;2022-08-19T10:00:43;25.50;53.70
49711;DHT22;35602;44.534;18.696;2022-08-19T10:05:46;25.60;55.30
49711;DHT22;35602;44.534;18.696;2022-08-19T10:10:50;26.20;54.60
49711;DHT22;35602;44.534;18.696;2022-08-19T10:15:52;26.60;55.00
49711;DHT22;35602;44.534;18.696;2022-08-19T10:21:10;26.90;54.20
49711;DHT22;35602;44.534;18.696;2022-08-19T10:26:13;27.00;54.00
49711;DHT22;35602;44.534;18.696;2022-08-19T10:31:18;27.20;53.90
49711;DHT22;35602;44.534;18.696;2022-08-19T10:36:22;26.80;53.10
49711;DHT22;35602;44.534;18.696;2022-08-19T10:41:26;26.20;54.00
49711;DHT22;35602;44.534;18.696;2022-08-19T10:46:28;26.00;54.40
49711;DHT22;35602;44.534;18.696;2022-08-19T10:51:32;25.80;55.20
49711;DHT22;35602;44.534;18.696;2022-08-19T10:56:52;25.70;55.80
49711;DHT22;35602;44.534;18.696;2022-08-19T11:01:58;25.70;56.00
49711;DHT22;35602;44.534;18.696;2022-08-19T11:07:02;25.60;56.10
49711;DHT22;35602;44.534;18.696;2022-08-19T11:12:04;25.50;56.40
49711;DHT22;35602;44.534;18.696;2022-08-19T11:17:05;25.50;56.10
49711;DHT22;35602;44.534;18.696;2022-08-19T11:22:13;25.50;56.00
49711;DHT22;35602;44.534;18.696;2022-08-19T11:27:14;25.50;56.20
49711;DHT22;35602;44.534;18.696;2022-08-19T11:32:14;25.40;55.90
49711;DHT22;35602;44.534;18.696;2022-08-19T11:37:16;25.40;56.00
49711;DHT22;35602;44.534;18.696;2022-08-19T11:42:17;25.40;56.10
49711;DHT22;35602;44.534;18.696;2022-08-19T11:47:36;25.40;56.10
49711;DHT22;35602;44.534;18.696;2022-08-19T11:52:39;25.40;55.90
49711;DHT22;35602;44.534;18.696;2022-08-19T11:57:41;25.30;55.90
49711;DHT22;35602;44.534;18.696;2022-08-19T12:02:44;25.40;56.10
49711;DHT22;35602;44.534;18.696;2022-08-19T12:07:44;25.40;56.50
49711;DHT22;35602;44.534;18.696;2022-08-19T12:12:46;25.70;58.40
49711;DHT22;35602;44.534;18.696;2022-08-19T12:17:47;25.80;57.40
49711;DHT22;35602;44.534;18.696;2022-08-19T12:22:47;25.90;56.30
49711;DHT22;35602;44.534;18.696;2022-08-19T12:27:48;25.60;56.00
49711;DHT22;35602;44.534;18.696;2022-08-19T12:32:51;25.50;55.80
49711;DHT22;35602;44.534;18.696;2022-08-19T12:37:51;25.40;55.50
49711;DHT22;35602;44.534;18.696;2022-08-19T12:42:53;25.30;55.40
49711;DHT22;35602;44.534;18.696;2022-08-19T12:47:54;25.30;55.40
49711;DHT22;35602;44.534;18.696;2022-08-19T12:52:56;25.30;55.60
49711;DHT22;35602;44.534;18.696;2022-08-19T12:57:57;25.30;55.90
49711;DHT22;35602;44.534;18.696;2022-08-19T13:02:59;25.30;55.90
49711;DHT22;35602;44.534;18.696;2022-08-19T13:08:00;25.30;56.20
49711;DHT22;35602;44.534;18.696;2022-08-19T13:13:06;25.40;56.00
49711;DHT22;35602;44.534;18.696;2022-08-19T13:18:09;25.40;55.80
49711;DHT22;35602;44.534;18.696;2022-08-19T13:23:10;25.50;55.80
49711;DHT22;35602;44.534;18.696;2022-08-19T13:28:11;25.40;55.60
49711;DHT22;35602;44.534;18.696;2022-08-19T13:33:12;25.40;55.60
49711;DHT22;35602;44.534;18.696;2022-08-19T13:38:18;25.50;58.70
49711;DHT22;35602;44.534;18.696;2022-08-19T13:43:21;26.20;58.60
49711;DHT22;35602;44.534;18.696;2022-08-19T13:48:25;26.60;58.00
49711;DHT22;35602;44.534;18.696;2022-08-19T13:53:27;26.80;57.60
49711;DHT22;35602;44.534;18.696;2022-08-19T13:58:27;26.90;57.30
49711;DHT22;35602;44.534;18.696;2022-08-19T14:03:28;27.10;56.80
49711;DHT22;35602;44.534;18.696;2022-08-19T14:08:30;27.20;57.50
49711;DHT22;35602;44.534;18.696;2022-08-19T14:13:32;27.30;57.40
49711;DHT22;35602;44.534;18.696;2022-08-19T14:18:34;27.40;58.20
49711;DHT22;35602;44.534;18.696;2022-08-19T14:23:35;27.40;57.80
49711;DHT22;35602;44.534;18.696;2022-08-19T14:28:37;27.40;57.60
49711;DHT22;35602;44.534;18.696;2022-08-19T14:33:41;27.40;57.50
49711;DHT22;35602;44.534;18.696;2022-08-19T14:38:43;27.50;57.50
49711;DHT22;35602;44.534;18.696;2022-08-19T14:43:45;27.50;57.40
49711;DHT22;35602;44.534;18.696;2022-08-19T14:48:47;27.50;57.40
49711;DHT22;35602;44.534;18.696;2022-08-19T14:53:51;27.50;57.30
49711;DHT22;35602;44.534;18.696;2022-08-19T14:58:53;27.50;57.30
49711;DHT22;35602;44.534;18.696;2022-08-19T15:03:54;27.50;57.20
49711;DHT22;35602;44.534;18.696;2022-08-19T15:08:55;27.50;57.20
49711;DHT22;35602;44.534;18.696;2022-08-19T15:13:56;27.50;57.10
49711;DHT22;35602;44.534;18.696;2022-08-19T15:18:58;27.50;57.10
49711;DHT22;35602;44.534;18.696;2022-08-19T15:24:03;27.50;57.10
49711;DHT22;35602;44.534;18.696;2022-08-19T15:29:05;27.60;57.10
49711;DHT22;35602;44.534;18.696;2022-08-19T15:34:06;27.60;57.20
49711;DHT22;35602;44.534;18.696;2022-08-19T15:39:07;27.60;57.10
49711;DHT22;35602;44.534;18.696;2022-08-19T15:44:12;27.60;57.40
49711;DHT22;35602;44.534;18.696;2022-08-19T15:49:16;27.60;57.10
49711;DHT22;35602;44.534;18.696;2022-08-19T15:54:19;27.60;57.10
49711;DHT22;35602;44.534;18.696;2022-08-19T15:59:21;27.60;57.10
49711;DHT22;35602;44.534;18.696;2022-08-19T16:04:42;27.60;57.10
49711;DHT22;35602;44.534;18.696;2022-08-19T16:10:01;27.60;57.00
49711;DHT22;35602;44.534;18.696;2022-08-19T16:15:02;27.60;57.00
49711;DHT22;35602;44.534;18.696;2022-08-19T16:20:07;27.60;57.00
49711;DHT22;35602;44.534;18.696;2022-08-19T16:25:09;27.60;57.00
49711;DHT22;35602;44.534;18.696;2022-08-19T16:30:10;27.60;57.00
49711;DHT22;35602;44.534;18.696;2022-08-19T16:35:11;27.60;57.00
49711;DHT22;35602;44.534;18.696;2022-08-19T16:40:13;27.60;56.90
49711;DHT22;35602;44.534;18.696;2022-08-19T16:45:14;27.60;57.60
49711;DHT22;35602;44.534;18.696;2022-08-19T16:50:16;27.60;57.00
49711;DHT22;35602;44.534;18.696;2022-08-19T16:55:18;27.60;56.90
49711;DHT22;35602;44.534;18.696;2022-08-19T17:00:21;27.60;56.90
49711;DHT22;35602;44.534;18.696;2022-08-19T17:05:22;27.60;56.90
49711;DHT22;35602;44.534;18.696;2022-08-19T17:10:24;27.60;56.80
49711;DHT22;35602;44.534;18.696;2022-08-19T17:15:25;27.60;56.80
49711;DHT22;35602;44.534;18.696;2022-08-19T17:20:25;27.60;56.80
49711;DHT22;35602;44.534;18.696;2022-08-19T17:25:28;27.60;56.80
49711;DHT22;35602;44.534;18.696;2022-08-19T17:30:31;27.60;56.80
49711;DHT22;35602;44.534;18.696;2022-08-19T17:35:32;27.70;56.90
49711;DHT22;35602;44.534;18.696;2022-08-19T17:40:34;27.70;56.90
49711;DHT22;35602;44.534;18.696;2022-08-19T17:45:37;27.70;56.90
49711;DHT22;35602;44.534;18.696;2022-08-19T17:50:38;27.70;57.50
49711;DHT22;35602;44.534;18.696;2022-08-19T17:55:41;27.70;56.90
49711;DHT22;35602;44.534;18.696;2022-08-19T18:00:41;27.70;56.90
49711;DHT22;35602;44.534;18.696;2022-08-19T18:05:42;27.70;56.90
49711;DHT22;35602;44.534;18.696;2022-08-19T18:10:43;27.70;56.90
49711;DHT22;35602;44.534;18.696;2022-08-19T18:15:44;27.70;56.90
49711;DHT22;35602;44.534;18.696;2022-08-19T18:20:46;27.70;56.90
49711;DHT22;35602;44.534;18.696;2022-08-19T18:25:47;27.70;57.00
49711;DHT22;35602;44.534;18.696;2022-08-19T18:30:48;27.70;56.90
49711;DHT22;35602;44.534;18.696;2022-08-19T18:35:49;27.70;56.90
49711;DHT22;35602;44.534;18.696;2022-08-19T18:40:52;27.70;56.90
49711;DHT22;35602;44.534;18.696;2022-08-19T18:46:11;27.70;57.00
49711;DHT22;35602;44.534;18.696;2022-08-19T18:51:31;27.70;56.90
49711;DHT22;35602;44.534;18.696;2022-08-19T18:56:32;27.70;56.90
49711;DHT22;35602;44.534;18.696;2022-08-19T19:01:37;27.70;57.00
49711;DHT22;35602;44.534;18.696;2022-08-19T19:06:40;27.70;56.90
49711;DHT22;35602;44.534;18.696;2022-08-19T19:11:43;27.70;57.50
49711;DHT22;35602;44.534;18.696;2022-08-19T19:16:44;27.70;56.90
49711;DHT22;35602;44.534;18.696;2022-08-19T19:21:47;27.70;56.90
49711;DHT22;35602;44.534;18.696;2022-08-19T19:26:51;27.70;57.00
49711;DHT22;35602;44.534;18.696;2022-08-19T19:31:52;27.70;57.00
49711;DHT22;35602;44.534;18.696;2022-08-19T19:36:55;27.70;57.00
49711;DHT22;35602;44.534;18.696;2022-08-19T19:41:56;27.70;57.00
49711;DHT22;35602;44.534;18.696;2022-08-19T19:46:57;27.70;57.10
49711;DHT22;35602;44.534;18.696;2022-08-19T19:52:02;27.70;57.10
49711;DHT22;35602;44.534;18.696;2022-08-19T19:57:03;27.70;57.10
49711;DHT22;35602;44.534;18.696;2022-08-19T20:02:04;27.70;57.10
49711;DHT22;35602;44.534;18.696;2022-08-19T20:07:05;27.70;57.60
49711;DHT22;35602;44.534;18.696;2022-08-19T20:12:06;27.70;57.20
49711;DHT22;35602;44.534;18.696;2022-08-19T20:17:07;27.70;57.30
49711;DHT22;35602;44.534;18.696;2022-08-19T20:22:08;27.70;57.20
49711;DHT22;35602;44.534;18.696;2022-08-19T20:27:09;27.70;57.20
49711;DHT22;35602;44.534;18.696;2022-08-19T20:32:11;27.70;57.30
49711;DHT22;35602;44.534;18.696;2022-08-19T20:37:12;27.70;57.30
49711;DHT22;35602;44.534;18.696;2022-08-19T20:42:13;27.70;57.30
49711;DHT22;35602;44.534;18.696;2022-08-19T20:47:14;27.70;57.40
49711;DHT22;35602;44.534;18.696;2022-08-19T20:52:14;27.70;57.40
49711;DHT22;35602;44.534;18.696;2022-08-19T20:57:16;27.70;57.30
49711;DHT22;35602;44.534;18.696;2022-08-19T21:02:17;27.70;57.40
49711;DHT22;35602;44.534;18.696;2022-08-19T21:07:19;27.70;57.40
49711;DHT22;35602;44.534;18.696;2022-08-19T21:12:20;27.70;57.70
49711;DHT22;35602;44.534;18.696;2022-08-19T21:17:21;27.70;57.50
49711;DHT22;35602;44.534;18.696;2022-08-19T21:22:21;27.70;57.50
49711;DHT22;35602;44.534;18.696;2022-08-19T21:27:22;27.70;57.50
49711;DHT22;35602;44.534;18.696;2022-08-19T21:32:23;27.70;57.60
49711;DHT22;35602;44.534;18.696;2022-08-19T21:37:24;27.70;57.50
49711;DHT22;35602;44.534;18.696;2022-08-19T21:42:25;27.70;57.60
49711;DHT22;35602;44.534;18.696;2022-08-19T21:47:26;27.70;57.50
49711;DHT22;35602;44.534;18.696;2022-08-19T21:52:27;27.70;57.50
49711;DHT22;35602;44.534;18.696;2022-08-19T21:57:28;27.70;57.50
49711;DHT22;35602;44.534;18.696;2022-08-19T22:02:29;27.70;57.60
49711;DHT22;35602;44.534;18.696;2022-08-19T22:07:30;27.70;57.50
49711;DHT22;35602;44.534;18.696;2022-08-19T22:12:34;27.70;57.50
49711;DHT22;35602;44.534;18.696;2022-08-19T22:17:36;27.70;57.50
49711;DHT22;35602;44.534;18.696;2022-08-19T22:22:43;27.70;57.50
49711;DHT22;35602;44.534;18.696;2022-08-19T22:27:45;27.70;57.50
49711;DHT22;35602;44.534;18.696;2022-08-19T22:32:48;27.70;57.60
49711;DHT22;35602;44.534;18.696;2022-08-19T22:37:50;27.70;57.50
49711;DHT22;35602;44.534;18.696;2022-08-19T22:43:04;27.70;57.60
49711;DHT22;35602;44.534;18.696;2022-08-19T22:48:08;27.70;57.50
49711;DHT22;35602;44.534;18.696;2022-08-19T22:53:09;27.70;57.50
49711;DHT22;35602;44.534;18.696;2022-08-19T22:58:11;27.70;57.50
49711;DHT22;35602;44.534;18.696;2022-08-19T23:03:12;27.70;57.50
49711;DHT22;35602;44.534;18.696;2022-08-19T23:08:13;27.70;57.50
49711;DHT22;35602;44.534;18.696;2022-08-19T23:13:14;27.70;57.50
49711;DHT22;35602;44.534;18.696;2022-08-19T23:18:16;27.70;57.60
49711;DHT22;35602;44.534;18.696;2022-08-19T23:23:20;27.70;57.60
49711;DHT22;35602;44.534;18.696;2022-08-19T23:28:24;27.70;57.60
49711;DHT22;35602;44.534;18.696;2022-08-19T23:33:43;27.70;57.60
49711;DHT22;35602;44.534;18.696;2022-08-19T23:38:46;27.70;57.60
49711;DHT22;35602;44.534;18.696;2022-08-19T23:43:48;27.70;57.70
49711;DHT22;35602;44.534;18.696;2022-08-19T23:48:49;27.70;57.70
49711;DHT22;35602;44.534;18.696;2022-08-19T23:53:49;27.70;57.60
49711;DHT22;35602;44.534;18.696;2022-08-19T23:58:50;27.70;57.70
